createdAt,value
2022-07-26T00:00:55.756Z,1.11
2022-07-26T00:02:27.366Z,0.79
2022-07-26T00:03:58.880Z,1.28
2022-07-26T00:05:30.705Z,1.06
2022-07-26T00:07:02.302Z,0.97
2022-07-26T00:08:33.748Z,0.90
2022-07-26T00:10:05.255Z,1.03
2022-07-26T00:11:36.741Z,0.94
2022-07-26T00:13:13.489Z,0.92
2022-07-26T00:14:45.240Z,1.08
2022-07-26T00:16:17.020Z,1.11
2022-07-26T00:17:48.877Z,0.97
2022-07-26T00:19:20.418Z,0.86
2022-07-26T00:20:52.197Z,1.03
2022-07-26T00:22:23.943Z,1.00
2022-07-26T00:23:55.294Z,0.97
2022-07-26T00:25:26.844Z,0.97
2022-07-26T00:26:58.539Z,1.08
2022-07-26T00:28:29.956Z,1.17
2022-07-26T00:30:01.550Z,1.16
2022-07-26T00:31:33.754Z,1.19
2022-07-26T00:33:05.182Z,1.23
2022-07-26T00:34:36.854Z,1.06
2022-07-26T00:36:08.328Z,1.09
2022-07-26T00:37:39.983Z,1.16
2022-07-26T00:39:11.923Z,1.16
2022-07-26T00:40:43.666Z,1.14
2022-07-26T00:42:15.181Z,1.26
2022-07-26T00:43:46.711Z,1.38
2022-07-26T00:45:18.235Z,1.44
2022-07-26T00:46:50.922Z,1.28
2022-07-26T00:48:22.369Z,1.27
2022-07-26T00:49:54.189Z,1.25
2022-07-26T00:51:25.820Z,1.24
2022-07-26T00:52:57.542Z,1.16
2022-07-26T00:54:29.284Z,1.40
2022-07-26T00:56:00.897Z,1.21
2022-07-26T00:57:32.276Z,1.28
2022-07-26T00:59:03.761Z,1.35
2022-07-26T01:00:35.354Z,1.26
2022-07-26T01:02:07.057Z,1.38
2022-07-26T01:03:39.885Z,1.20
2022-07-26T01:05:11.656Z,1.26
2022-07-26T01:06:43.711Z,1.37
2022-07-26T01:08:15.390Z,1.42
2022-07-26T01:09:47.280Z,1.43
2022-07-26T01:11:18.838Z,1.59
2022-07-26T01:12:50.341Z,1.50
2022-07-26T01:14:22.224Z,1.76
2022-07-26T01:15:53.743Z,1.31
2022-07-26T01:17:25.348Z,1.60
2022-07-26T01:18:56.965Z,1.47
2022-07-26T01:20:28.527Z,1.40
2022-07-26T01:21:59.975Z,1.70
2022-07-26T01:23:31.707Z,1.43
2022-07-26T01:25:03.673Z,1.49
2022-07-26T01:26:35.724Z,1.52
2022-07-26T01:28:07.319Z,1.52
2022-07-26T01:29:38.913Z,1.40
2022-07-26T01:31:10.387Z,1.56
2022-07-26T01:32:47.170Z,1.32
2022-07-26T01:34:19.392Z,1.44
2022-07-26T01:35:51.604Z,1.44
2022-07-26T01:37:23.212Z,1.49
2022-07-26T01:38:54.858Z,1.92
2022-07-26T01:40:27.067Z,1.63
2022-07-26T01:41:58.733Z,1.47
2022-07-26T01:43:30.128Z,1.62
2022-07-26T01:45:01.476Z,1.43
2022-07-26T01:46:32.930Z,1.45
2022-07-26T01:48:04.207Z,1.52
2022-07-26T01:49:35.691Z,1.58
2022-07-26T01:51:07.119Z,1.83
2022-07-26T01:52:43.604Z,1.59
2022-07-26T01:54:15.098Z,1.73
2022-07-26T01:55:54.168Z,1.59
2022-07-26T01:57:25.701Z,1.64
2022-07-26T01:58:57.167Z,1.53
2022-07-26T02:00:28.737Z,1.68
2022-07-26T02:02:00.173Z,1.49
2022-07-26T02:03:31.871Z,1.59
2022-07-26T02:05:03.819Z,1.53
2022-07-26T02:06:37.196Z,1.75
2022-07-26T02:08:09.138Z,1.52
2022-07-26T02:09:42.301Z,1.55
2022-07-26T02:11:13.773Z,1.84
2022-07-26T02:12:45.243Z,1.46
2022-07-26T02:14:25.495Z,1.65
2022-07-26T02:16:00.054Z,1.76
2022-07-26T02:17:31.878Z,1.63
2022-07-26T02:19:03.678Z,1.93
2022-07-26T02:20:35.059Z,2.02
2022-07-26T02:22:06.428Z,1.72
2022-07-26T02:23:41.917Z,1.80
2022-07-26T02:25:13.659Z,1.64
2022-07-26T02:26:45.360Z,1.84
2022-07-26T02:28:16.951Z,2.04
2022-07-26T02:29:48.735Z,1.79
2022-07-26T02:31:20.402Z,1.93
2022-07-26T02:32:52.405Z,2.05
2022-07-26T02:34:23.965Z,1.82
2022-07-26T02:35:55.800Z,1.69
2022-07-26T02:37:27.494Z,1.75
2022-07-26T02:38:59.138Z,2.04
2022-07-26T02:40:31.239Z,1.84
2022-07-26T02:42:02.779Z,2.06
2022-07-26T02:43:34.182Z,2.08
2022-07-26T02:45:06.171Z,1.87
2022-07-26T02:46:38.025Z,1.93
2022-07-26T02:48:09.471Z,1.78
2022-07-26T02:49:40.984Z,1.86
2022-07-26T02:51:12.782Z,1.77
2022-07-26T02:52:44.325Z,1.70
2022-07-26T02:54:15.768Z,1.75
2022-07-26T02:55:47.837Z,1.64
2022-07-26T02:57:21.235Z,1.85
2022-07-26T02:58:52.735Z,1.83
2022-07-26T03:00:24.419Z,1.86
2022-07-26T03:01:56.346Z,1.71
2022-07-26T03:03:28.358Z,2.08
2022-07-26T03:04:59.755Z,1.67
2022-07-26T03:06:31.179Z,1.60
2022-07-26T03:08:02.654Z,1.72
2022-07-26T03:09:34.250Z,1.85
2022-07-26T03:11:11.710Z,1.63
2022-07-26T03:12:43.785Z,1.66
2022-07-26T03:14:15.424Z,1.64
2022-07-26T03:15:47.214Z,1.68
2022-07-26T03:17:18.980Z,1.55
2022-07-26T03:18:50.405Z,1.66
2022-07-26T03:20:21.746Z,1.70
2022-07-26T03:21:53.191Z,1.66
2022-07-26T03:23:24.685Z,1.76
2022-07-26T03:24:56.285Z,1.61
2022-07-26T03:26:27.728Z,1.89
2022-07-26T03:28:00.244Z,2.15
2022-07-26T03:29:31.745Z,1.94
2022-07-26T03:31:03.208Z,1.67
2022-07-26T03:32:34.808Z,1.86
2022-07-26T03:34:06.500Z,1.90
2022-07-26T03:35:38.121Z,1.88
2022-07-26T03:37:11.726Z,1.87
2022-07-26T03:38:43.157Z,1.81
2022-07-26T03:40:14.577Z,1.94
2022-07-26T03:41:46.054Z,2.13
2022-07-26T03:43:21.257Z,2.04
2022-07-26T03:44:55.006Z,1.98
2022-07-26T03:46:26.515Z,2.16
2022-07-26T03:47:58.096Z,2.06
2022-07-26T03:49:29.577Z,2.16
2022-07-26T03:51:01.580Z,2.14
2022-07-26T03:52:32.876Z,2.06
2022-07-26T03:54:04.305Z,2.20
2022-07-26T03:55:35.947Z,2.08
2022-07-26T03:57:07.640Z,2.23
2022-07-26T03:58:39.169Z,2.31
2022-07-26T04:00:10.746Z,2.22
2022-07-26T04:01:42.354Z,2.06
2022-07-26T04:03:14.197Z,2.21
2022-07-26T04:04:46.378Z,2.19
2022-07-26T04:06:18.019Z,2.44
2022-07-26T04:07:53.206Z,2.39
2022-07-26T04:09:25.044Z,2.16
2022-07-26T04:10:56.683Z,2.36
2022-07-26T04:12:28.235Z,2.43
2022-07-26T04:13:59.975Z,2.86
2022-07-26T04:15:31.495Z,2.77
2022-07-26T04:17:02.919Z,3.15
2022-07-26T04:18:34.487Z,3.17
2022-07-26T04:20:06.055Z,2.90
2022-07-26T04:21:37.624Z,3.15
2022-07-26T04:23:10.517Z,3.14
2022-07-26T04:24:42.853Z,2.83
2022-07-26T04:26:14.200Z,2.94
2022-07-26T04:27:45.810Z,3.04
2022-07-26T04:29:17.426Z,3.06
2022-07-26T04:30:49.107Z,3.28
2022-07-26T04:32:20.536Z,2.88
2022-07-26T04:33:52.233Z,3.00
2022-07-26T04:35:23.657Z,2.93
2022-07-26T04:36:54.958Z,3.07
2022-07-26T04:38:26.465Z,3.03
2022-07-26T04:39:57.995Z,2.99
2022-07-26T04:41:29.439Z,3.12
2022-07-26T04:43:01.241Z,3.24
2022-07-26T04:44:37.769Z,3.19
2022-07-26T04:46:09.371Z,2.87
2022-07-26T04:47:40.788Z,3.13
2022-07-26T04:49:12.310Z,2.95
2022-07-26T04:50:43.994Z,2.78
2022-07-26T04:52:15.321Z,3.48
2022-07-26T04:53:46.841Z,3.26
2022-07-26T04:55:18.489Z,2.76
2022-07-26T04:56:50.052Z,3.15
2022-07-26T04:58:21.582Z,3.46
2022-07-26T05:00:09.999Z,2.86
2022-07-26T05:01:52.055Z,3.15
2022-07-26T05:03:23.672Z,3.09
2022-07-26T05:04:55.257Z,3.22
2022-07-26T05:06:27.129Z,3.09
2022-07-26T05:07:58.656Z,3.11
2022-07-26T05:09:30.024Z,2.97
2022-07-26T05:11:01.952Z,2.91
2022-07-26T05:12:33.504Z,2.80
2022-07-26T05:14:05.255Z,3.01
2022-07-26T05:15:37.047Z,3.31
2022-07-26T05:17:13.625Z,3.50
2022-07-26T05:18:49.622Z,3.35
2022-07-26T05:20:21.401Z,2.97
2022-07-26T05:21:53.344Z,3.00
2022-07-26T05:23:24.977Z,3.25
2022-07-26T05:24:56.434Z,3.04
2022-07-26T05:26:28.123Z,3.31
2022-07-26T05:27:59.978Z,3.39
2022-07-26T05:29:31.629Z,3.27
2022-07-26T05:31:03.261Z,3.33
2022-07-26T05:32:34.789Z,3.31
2022-07-26T05:34:08.036Z,3.15
2022-07-26T05:35:39.537Z,3.40
2022-07-26T05:37:10.961Z,3.29
2022-07-26T05:38:43.140Z,3.41
2022-07-26T05:40:15.092Z,2.94
2022-07-26T05:41:51.896Z,3.18
2022-07-26T05:43:40.910Z,3.35
2022-07-26T05:45:13.647Z,3.21
2022-07-26T05:46:47.267Z,2.96
2022-07-26T05:48:18.795Z,3.23
2022-07-26T05:49:51.171Z,3.53
2022-07-26T05:51:23.158Z,3.54
2022-07-26T05:52:55.931Z,3.25
2022-07-26T05:54:27.593Z,2.88
2022-07-26T05:55:58.938Z,2.95
2022-07-26T05:57:30.633Z,3.18
2022-07-26T05:59:02.434Z,3.13
2022-07-26T06:00:34.258Z,3.42
2022-07-26T06:02:05.730Z,3.08
2022-07-26T06:03:37.549Z,3.09
2022-07-26T06:05:08.980Z,3.04
2022-07-26T06:06:40.938Z,3.32
2022-07-26T06:08:12.702Z,3.23
2022-07-26T06:09:44.281Z,3.31
2022-07-26T06:11:15.925Z,3.51
2022-07-26T06:12:47.315Z,3.44
2022-07-26T06:14:19.039Z,3.56
2022-07-26T06:15:55.618Z,3.21
2022-07-26T06:17:27.146Z,3.62
2022-07-26T06:19:03.900Z,3.64
2022-07-26T06:20:35.341Z,3.35
2022-07-26T06:22:07.228Z,3.38
2022-07-26T06:23:38.873Z,3.63
2022-07-26T06:25:10.474Z,3.24
2022-07-26T06:26:42.278Z,3.76
2022-07-26T06:28:13.933Z,3.43
2022-07-26T06:29:50.388Z,3.93
2022-07-26T06:31:27.256Z,3.55
2022-07-26T06:32:59.107Z,3.82
2022-07-26T06:34:31.172Z,3.33
2022-07-26T06:36:02.516Z,4.20
2022-07-26T06:37:34.154Z,3.52
2022-07-26T06:39:05.571Z,3.80
2022-07-26T06:40:38.479Z,3.98
2022-07-26T06:42:09.861Z,3.84
2022-07-26T06:43:41.336Z,3.87
2022-07-26T06:45:12.899Z,3.78
2022-07-26T06:46:44.603Z,4.22
2022-07-26T06:48:17.651Z,4.52
2022-07-26T06:49:49.159Z,4.45
2022-07-26T06:51:20.671Z,5.12
2022-07-26T06:52:52.447Z,5.07
2022-07-26T06:54:23.970Z,4.74
2022-07-26T06:55:55.753Z,5.45
2022-07-26T06:57:27.428Z,5.23
2022-07-26T06:59:00.104Z,5.63
2022-07-26T07:00:31.584Z,6.01
2022-07-26T07:02:03.295Z,6.38
2022-07-26T07:03:35.131Z,6.33
2022-07-26T07:05:06.591Z,6.63
2022-07-26T07:06:38.130Z,7.05
2022-07-26T07:08:09.598Z,7.76
2022-07-26T07:09:43.167Z,7.90
2022-07-26T07:11:14.815Z,7.44
2022-07-26T07:12:49.305Z,7.97
2022-07-26T07:14:20.894Z,7.78
2022-07-26T07:15:52.418Z,8.80
2022-07-26T07:17:26.803Z,9.02
2022-07-26T07:18:58.516Z,8.70
2022-07-26T07:20:30.029Z,9.06
2022-07-26T07:22:01.563Z,9.39
2022-07-26T07:23:33.431Z,9.62
2022-07-26T07:25:05.934Z,9.30
2022-07-26T07:26:37.937Z,8.94
2022-07-26T07:28:09.567Z,8.95
2022-07-26T07:29:43.170Z,8.64
2022-07-26T07:31:14.974Z,8.68
2022-07-26T07:32:46.925Z,8.41
2022-07-26T07:34:19.481Z,7.94
2022-07-26T07:35:51.390Z,8.62
2022-07-26T07:37:22.845Z,8.44
2022-07-26T07:38:54.726Z,8.77
2022-07-26T07:40:26.504Z,9.12
2022-07-26T07:41:58.155Z,8.53
2022-07-26T07:43:29.699Z,8.51
2022-07-26T07:45:01.221Z,8.80
2022-07-26T07:46:33.023Z,9.27
2022-07-26T07:48:04.594Z,8.96
2022-07-26T07:49:36.438Z,9.93
2022-07-26T07:51:08.083Z,9.59
2022-07-26T07:52:39.556Z,9.40
2022-07-26T07:54:11.939Z,9.75
2022-07-26T07:55:46.414Z,9.37
2022-07-26T07:57:18.229Z,8.82
2022-07-26T07:58:49.919Z,8.83
2022-07-26T08:00:27.090Z,8.56
2022-07-26T08:01:59.388Z,8.23
2022-07-26T08:03:38.133Z,8.42
2022-07-26T08:05:15.150Z,8.18
2022-07-26T08:06:51.070Z,7.68
2022-07-26T08:08:23.015Z,7.87
2022-07-26T08:09:54.735Z,7.52
2022-07-26T08:11:26.324Z,7.53
2022-07-26T08:13:01.850Z,7.06
2022-07-26T08:14:33.461Z,6.21
2022-07-26T08:16:09.367Z,6.48
2022-07-26T08:17:41.963Z,6.01
2022-07-26T08:19:15.658Z,5.78
2022-07-26T08:20:47.899Z,6.08
2022-07-26T08:22:20.043Z,5.66
2022-07-26T08:23:53.912Z,5.33
2022-07-26T08:25:26.541Z,5.44
2022-07-26T08:26:58.230Z,5.58
2022-07-26T08:28:46.971Z,6.00
2022-07-26T08:30:19.416Z,5.68
2022-07-26T08:31:51.233Z,5.24
2022-07-26T08:33:22.941Z,5.18
2022-07-26T08:34:55.014Z,5.22
2022-07-26T08:37:14.407Z,4.82
2022-07-26T08:38:48.442Z,4.89
2022-07-26T08:40:20.256Z,5.03
2022-07-26T08:41:52.134Z,5.32
2022-07-26T08:43:23.965Z,5.15
2022-07-26T08:44:55.431Z,5.58
2022-07-26T08:46:28.245Z,5.44
2022-07-26T08:48:17.368Z,5.04
2022-07-26T08:49:49.830Z,5.19
2022-07-26T08:51:21.349Z,5.46
2022-07-26T08:52:52.821Z,5.61
2022-07-26T08:54:24.560Z,5.56
2022-07-26T08:56:06.835Z,5.53
2022-07-26T08:57:39.568Z,5.51
2022-07-26T08:59:15.595Z,5.75
2022-07-26T09:00:50.886Z,5.47
2022-07-26T09:02:22.591Z,5.36
2022-07-26T09:03:54.291Z,5.39
2022-07-26T09:05:26.193Z,5.23
2022-07-26T09:06:57.833Z,5.32
2022-07-26T09:08:29.745Z,5.49
2022-07-26T09:10:01.506Z,5.41
2022-07-26T09:11:33.217Z,5.38
2022-07-26T09:13:05.367Z,5.00
2022-07-26T09:14:37.192Z,4.87
2022-07-26T09:16:09.087Z,5.00
2022-07-26T09:17:41.212Z,5.16
2022-07-26T09:19:13.232Z,5.30
2022-07-26T09:20:44.747Z,5.51
2022-07-26T09:22:16.420Z,6.09
2022-07-26T09:23:47.838Z,6.02
2022-07-26T09:25:19.223Z,6.28
2022-07-26T09:26:50.929Z,6.45
2022-07-26T09:28:22.324Z,7.17
2022-07-26T09:29:54.251Z,6.61
2022-07-26T09:31:25.842Z,7.03
2022-07-26T09:32:59.033Z,6.73
2022-07-26T09:34:30.759Z,6.31
2022-07-26T09:36:02.363Z,6.11
2022-07-26T09:37:33.931Z,6.06
2022-07-26T09:39:05.628Z,6.08
2022-07-26T09:40:38.152Z,5.68
2022-07-26T09:42:26.894Z,5.44
2022-07-26T09:44:00.300Z,5.45
2022-07-26T09:45:32.018Z,4.90
2022-07-26T09:47:03.437Z,5.05
2022-07-26T09:48:59.536Z,5.27
2022-07-26T09:50:40.093Z,4.78
2022-07-26T09:52:11.579Z,4.67
2022-07-26T09:53:43.213Z,4.56
2022-07-26T09:55:14.683Z,4.26
2022-07-26T09:56:46.216Z,4.13
2022-07-26T09:58:17.709Z,4.03
2022-07-26T09:59:49.215Z,3.78
2022-07-26T10:01:20.860Z,3.95
2022-07-26T10:02:52.429Z,3.96
2022-07-26T10:04:24.237Z,3.74
2022-07-26T10:05:55.949Z,3.85
2022-07-26T10:07:27.804Z,3.87
2022-07-26T10:08:59.357Z,3.69
2022-07-26T10:10:30.899Z,3.83
2022-07-26T10:12:02.609Z,3.52
2022-07-26T10:13:33.983Z,3.28
2022-07-26T10:15:07.138Z,3.56
2022-07-26T10:16:38.886Z,3.59
2022-07-26T10:18:10.270Z,3.29
2022-07-26T10:19:48.434Z,3.21
2022-07-26T10:21:19.942Z,2.83
2022-07-26T10:22:51.357Z,3.00
2022-07-26T10:24:22.803Z,3.05
2022-07-26T10:25:54.553Z,3.35
2022-07-26T10:27:32.106Z,3.21
2022-07-26T10:29:05.140Z,3.40
2022-07-26T10:30:38.741Z,3.19
2022-07-26T10:32:10.459Z,3.68
2022-07-26T10:33:42.162Z,3.29
2022-07-26T10:35:14.020Z,3.38
2022-07-26T10:36:47.330Z,3.18
2022-07-26T10:38:19.106Z,3.06
2022-07-26T10:39:50.945Z,3.26
2022-07-26T10:41:22.473Z,3.42
2022-07-26T10:42:54.099Z,3.30
2022-07-26T10:44:26.754Z,3.42
2022-07-26T10:45:58.312Z,3.73
2022-07-26T10:47:34.883Z,3.51
2022-07-26T10:49:06.970Z,3.43
2022-07-26T10:50:38.606Z,3.42
2022-07-26T10:52:10.264Z,3.47
2022-07-26T10:53:41.976Z,2.08
2022-07-26T10:55:13.713Z,1.75
2022-07-26T10:56:45.202Z,1.76
2022-07-26T10:58:17.068Z,0.98
2022-07-26T10:59:55.387Z,1.48
2022-07-26T11:01:38.066Z,1.36
2022-07-26T11:03:09.995Z,1.30
2022-07-26T11:04:51.370Z,1.67
2022-07-26T11:06:22.958Z,1.65
2022-07-26T11:07:54.491Z,1.53
2022-07-26T11:09:26.128Z,1.51
2022-07-26T11:10:57.645Z,2.14
2022-07-26T11:12:30.537Z,2.49
2022-07-26T11:14:01.984Z,2.34
2022-07-26T11:15:33.602Z,2.89
2022-07-26T11:17:07.573Z,2.82
2022-07-26T11:18:43.974Z,2.59
2022-07-26T11:20:15.729Z,2.46
2022-07-26T11:21:47.064Z,2.32
2022-07-26T11:23:18.713Z,2.04
2022-07-26T11:24:50.160Z,2.04
2022-07-26T11:26:22.139Z,2.15
2022-07-26T11:27:53.534Z,2.21
2022-07-26T11:29:25.236Z,2.29
2022-07-26T11:31:09.024Z,2.05
2022-07-26T11:32:41.920Z,2.22
2022-07-26T11:34:13.734Z,2.42
2022-07-26T11:35:45.345Z,2.16
2022-07-26T11:37:17.011Z,2.26
2022-07-26T11:38:48.611Z,1.98
2022-07-26T11:40:20.062Z,2.05
2022-07-26T11:41:51.817Z,2.39
2022-07-26T11:43:23.404Z,2.04
2022-07-26T11:44:55.206Z,2.15
2022-07-26T11:46:26.685Z,1.90
2022-07-26T11:47:58.175Z,2.31
2022-07-26T11:50:01.180Z,1.80
2022-07-26T11:51:42.938Z,1.22
2022-07-26T11:53:14.264Z,1.09
2022-07-26T11:54:45.679Z,0.92
2022-07-26T11:56:17.839Z,0.83
2022-07-26T11:57:49.797Z,0.71
2022-07-26T11:59:21.285Z,0.80
2022-07-26T12:00:53.057Z,0.75
2022-07-26T12:02:24.818Z,0.70
2022-07-26T12:03:56.377Z,0.90
2022-07-26T12:05:28.217Z,0.88
2022-07-26T12:07:00.088Z,0.90
2022-07-26T12:08:31.720Z,1.28
2022-07-26T12:10:03.229Z,1.13
2022-07-26T12:11:34.646Z,1.17
2022-07-26T12:13:06.672Z,1.00
2022-07-26T12:14:38.492Z,0.74
2022-07-26T12:16:10.283Z,0.82
2022-07-26T12:17:41.913Z,0.62
2022-07-26T12:19:13.669Z,0.59
2022-07-26T12:20:45.242Z,0.74
2022-07-26T12:22:17.041Z,0.63
2022-07-26T12:23:49.026Z,0.69
2022-07-26T12:25:20.993Z,0.49
2022-07-26T12:26:52.487Z,0.50
2022-07-26T12:28:24.240Z,0.54
2022-07-26T12:29:56.055Z,0.49
2022-07-26T12:31:29.117Z,0.42
2022-07-26T12:33:01.078Z,0.54
2022-07-26T12:34:33.565Z,0.41
2022-07-26T12:36:05.198Z,0.34
2022-07-26T12:37:40.545Z,0.31
2022-07-26T12:39:15.471Z,0.49
2022-07-26T12:40:47.435Z,0.35
2022-07-26T12:42:21.260Z,0.28
2022-07-26T12:43:53.680Z,0.37
2022-07-26T12:45:25.951Z,0.41
2022-07-26T12:46:58.327Z,0.34
2022-07-26T12:48:31.367Z,0.35
2022-07-26T12:50:09.682Z,0.27
2022-07-26T12:51:44.634Z,0.29
2022-07-26T12:53:22.853Z,0.42
2022-07-26T12:54:56.441Z,0.32
2022-07-26T12:56:28.414Z,0.35
2022-07-26T12:58:02.074Z,0.32
2022-07-26T12:59:34.728Z,0.51
2022-07-26T13:01:06.851Z,0.30
2022-07-26T13:02:38.466Z,0.28
2022-07-26T13:04:11.854Z,0.41
2022-07-26T13:05:49.777Z,0.27
2022-07-26T13:07:24.620Z,0.51
2022-07-26T13:08:56.895Z,0.40
2022-07-26T13:10:33.753Z,0.61
2022-07-26T13:12:07.641Z,0.48
2022-07-26T13:13:42.217Z,0.36
2022-07-26T13:15:14.121Z,0.37
2022-07-26T13:16:51.799Z,0.47
2022-07-26T13:18:24.293Z,0.48
2022-07-26T13:19:55.858Z,0.41
2022-07-26T13:21:33.281Z,0.42
2022-07-26T13:23:06.289Z,0.37
2022-07-26T13:24:38.610Z,0.40
2022-07-26T13:26:14.058Z,0.46
2022-07-26T13:27:58.326Z,0.48
2022-07-26T13:29:36.659Z,0.46
2022-07-26T13:31:08.616Z,0.45
2022-07-26T13:32:42.044Z,0.47
2022-07-26T13:34:14.432Z,0.43
2022-07-26T13:35:51.206Z,0.42
2022-07-26T13:37:24.161Z,0.42
2022-07-26T13:38:55.998Z,0.50
2022-07-26T13:40:31.545Z,0.52
2022-07-26T13:42:08.613Z,0.44
2022-07-26T13:43:40.273Z,0.52
2022-07-26T13:45:12.286Z,0.56
2022-07-26T13:46:44.459Z,0.58
2022-07-26T13:48:16.099Z,0.89
2022-07-26T13:49:48.648Z,0.85
2022-07-26T13:51:27.724Z,0.69
2022-07-26T13:53:00.502Z,0.81
2022-07-26T13:54:32.521Z,0.79
2022-07-26T13:56:05.956Z,0.96
2022-07-26T13:57:49.142Z,0.49
2022-07-26T13:59:28.273Z,0.48
2022-07-26T14:00:59.887Z,0.48
2022-07-26T14:02:31.379Z,0.60
2022-07-26T14:04:17.509Z,0.55
2022-07-26T14:05:49.345Z,0.62
2022-07-26T14:07:23.563Z,0.85
2022-07-26T14:08:55.413Z,0.67
2022-07-26T14:10:36.983Z,0.69
2022-07-26T14:12:14.204Z,0.77
2022-07-26T14:13:55.084Z,0.49
2022-07-26T14:15:34.353Z,0.75
2022-07-26T14:17:07.511Z,0.73
2022-07-26T14:18:39.445Z,0.69
2022-07-26T14:20:15.843Z,0.67
2022-07-26T14:21:59.843Z,0.51
2022-07-26T14:23:32.785Z,0.84
2022-07-26T14:25:06.618Z,0.65
2022-07-26T14:26:39.086Z,0.61
2022-07-26T14:28:11.127Z,0.57
2022-07-26T14:29:50.102Z,0.79
2022-07-26T14:31:36.319Z,1.10
2022-07-26T14:33:14.374Z,0.84
2022-07-26T14:34:47.102Z,0.87
2022-07-26T14:36:24.070Z,0.65
2022-07-26T14:37:56.374Z,0.76
2022-07-26T14:39:27.963Z,1.08
2022-07-26T14:41:01.418Z,1.01
2022-07-26T14:42:33.050Z,0.78
2022-07-26T14:44:05.311Z,0.86
2022-07-26T14:45:39.372Z,1.60
2022-07-26T14:47:18.409Z,1.81
2022-07-26T14:48:54.750Z,2.12
2022-07-26T14:50:26.813Z,1.36
2022-07-26T14:51:58.372Z,1.22
2022-07-26T14:53:30.173Z,0.78
2022-07-26T14:55:02.053Z,0.84
2022-07-26T14:56:33.742Z,1.15
2022-07-26T14:58:11.352Z,1.43
2022-07-26T14:59:43.012Z,1.69
2022-07-26T15:01:20.330Z,1.20
2022-07-26T15:02:52.499Z,1.38
2022-07-26T15:04:29.394Z,0.79
2022-07-26T15:06:01.473Z,0.90
2022-07-26T15:07:37.973Z,0.94
2022-07-26T15:09:09.500Z,1.23
2022-07-26T15:10:46.118Z,0.70
2022-07-26T15:12:17.737Z,0.59
2022-07-26T15:13:50.485Z,0.58
2022-07-26T15:15:22.376Z,0.89
2022-07-26T15:16:54.039Z,0.55
2022-07-26T15:18:35.804Z,0.61
2022-07-26T15:20:09.630Z,0.67
2022-07-26T15:21:41.489Z,0.96
2022-07-26T15:23:13.347Z,0.90
2022-07-26T15:24:45.284Z,0.81
2022-07-26T15:26:17.296Z,0.80
2022-07-26T15:27:49.925Z,0.83
2022-07-26T15:29:22.717Z,0.69
2022-07-26T15:30:59.323Z,0.59
2022-07-26T15:32:31.338Z,0.87
2022-07-26T15:34:03.826Z,0.77
2022-07-26T15:35:35.575Z,0.78
2022-07-26T15:37:08.641Z,0.91
2022-07-26T15:38:41.240Z,0.94
2022-07-26T15:40:17.741Z,1.01
2022-07-26T15:41:51.367Z,0.87
2022-07-26T15:43:48.208Z,1.03
2022-07-26T15:45:21.009Z,1.04
2022-07-26T15:47:04.883Z,1.09
2022-07-26T15:48:36.758Z,0.94
2022-07-26T15:50:15.445Z,0.93
2022-07-26T15:51:48.556Z,1.04
2022-07-26T15:53:22.360Z,0.89
2022-07-26T15:54:56.356Z,1.11
2022-07-26T15:56:28.044Z,1.21
2022-07-26T15:58:01.054Z,1.16
2022-07-26T15:59:32.527Z,1.02
2022-07-26T16:01:04.531Z,1.17
2022-07-26T16:02:36.741Z,1.12
2022-07-26T16:04:10.013Z,1.01
2022-07-26T16:05:53.647Z,1.27
2022-07-26T16:07:37.828Z,1.35
2022-07-26T16:09:17.671Z,1.21
2022-07-26T16:10:51.311Z,1.13
2022-07-26T16:12:36.773Z,0.97
2022-07-26T16:14:37.106Z,0.86
2022-07-26T16:16:09.308Z,1.05
2022-07-26T16:17:41.406Z,1.16
2022-07-26T16:19:16.543Z,1.45
2022-07-26T16:20:49.741Z,0.94
2022-07-26T16:22:23.562Z,0.91
2022-07-26T16:23:59.086Z,0.84
2022-07-26T16:25:35.140Z,1.03
2022-07-26T16:27:12.812Z,0.87
2022-07-26T16:28:50.547Z,1.23
2022-07-26T16:30:34.303Z,1.07
2022-07-26T16:32:06.267Z,0.80
2022-07-26T16:33:46.110Z,0.74
2022-07-26T16:35:20.004Z,0.93
2022-07-26T16:36:52.571Z,0.72
2022-07-26T16:38:26.211Z,0.76
2022-07-26T16:39:59.180Z,0.53
2022-07-26T16:41:31.805Z,0.66
2022-07-26T16:43:09.676Z,0.92
2022-07-26T16:44:47.331Z,0.77
2022-07-26T16:46:20.156Z,0.69
2022-07-26T16:47:56.787Z,0.72
2022-07-26T16:49:32.746Z,0.68
2022-07-26T16:51:04.448Z,0.76
2022-07-26T16:52:38.035Z,0.77
2022-07-26T16:54:09.888Z,0.89
2022-07-26T16:55:43.060Z,0.99
2022-07-26T16:57:17.085Z,0.84
2022-07-26T16:58:54.799Z,0.83
2022-07-26T17:00:27.118Z,1.07
2022-07-26T17:01:59.692Z,1.02
2022-07-26T17:03:36.405Z,0.86
2022-07-26T17:05:11.794Z,1.03
2022-07-26T17:07:07.811Z,1.14
2022-07-26T17:08:55.026Z,0.94
2022-07-26T17:10:26.944Z,0.85
2022-07-26T17:12:06.857Z,0.88
2022-07-26T17:13:39.257Z,0.95
2022-07-26T17:15:10.693Z,0.81
2022-07-26T17:16:42.752Z,0.93
2022-07-26T17:18:17.219Z,1.18
2022-07-26T17:19:50.776Z,0.88
2022-07-26T17:21:25.165Z,1.14
2022-07-26T17:23:04.861Z,0.79
2022-07-26T17:24:45.796Z,1.12
2022-07-26T17:26:24.142Z,1.10
2022-07-26T17:27:55.589Z,1.12
2022-07-26T17:29:27.278Z,0.88
2022-07-26T17:30:59.337Z,0.88
2022-07-26T17:32:32.044Z,0.92
2022-07-26T17:34:07.730Z,0.89
2022-07-26T17:35:41.788Z,0.88
2022-07-26T17:37:15.818Z,0.98
2022-07-26T17:38:51.872Z,1.02
2022-07-26T17:40:31.870Z,1.06
2022-07-26T17:42:05.205Z,1.03
2022-07-26T17:43:40.372Z,1.31
2022-07-26T17:45:12.592Z,0.88
2022-07-26T17:46:45.941Z,0.84
2022-07-26T17:48:18.003Z,0.89
2022-07-26T17:49:53.294Z,1.17
2022-07-26T17:51:25.776Z,0.98
2022-07-26T17:52:58.947Z,1.07
2022-07-26T17:54:30.669Z,0.99
2022-07-26T17:56:02.678Z,0.98
2022-07-26T17:57:43.452Z,1.19
2022-07-26T17:59:21.335Z,1.19
2022-07-26T18:00:56.164Z,1.39
2022-07-26T18:02:29.337Z,1.16
2022-07-26T18:04:13.757Z,1.23
2022-07-26T18:05:45.847Z,1.00
2022-07-26T18:07:24.952Z,1.31
2022-07-26T18:08:56.874Z,1.10
2022-07-26T18:10:29.945Z,1.15
2022-07-26T18:12:03.442Z,1.18
2022-07-26T18:13:37.684Z,1.28
2022-07-26T18:15:11.016Z,1.21
2022-07-26T18:16:43.359Z,1.26
2022-07-26T18:18:15.082Z,2.20
2022-07-26T18:19:46.999Z,1.57
2022-07-26T18:21:18.692Z,1.70
2022-07-26T18:22:51.297Z,1.47
2022-07-26T18:24:23.422Z,1.69
2022-07-26T18:25:55.677Z,1.27
2022-07-26T18:27:30.578Z,1.20
2022-07-26T18:29:05.188Z,1.45
2022-07-26T18:30:37.527Z,1.17
2022-07-26T18:32:09.268Z,1.23
2022-07-26T18:33:41.190Z,1.11
2022-07-26T18:35:14.565Z,1.23
2022-07-26T18:36:46.641Z,1.47
2022-07-26T18:38:23.704Z,1.70
2022-07-26T18:39:57.781Z,1.56
2022-07-26T18:41:30.069Z,1.57
2022-07-26T18:43:04.971Z,1.40
2022-07-26T18:44:42.410Z,1.40
2022-07-26T18:46:13.949Z,1.43
2022-07-26T18:47:45.490Z,1.36
2022-07-26T18:49:20.186Z,1.35
2022-07-26T18:50:52.832Z,1.55
2022-07-26T18:52:32.105Z,1.41
2022-07-26T18:54:04.407Z,1.26
2022-07-26T18:55:36.071Z,1.56
2022-07-26T18:57:08.010Z,1.58
2022-07-26T18:58:39.603Z,1.27
2022-07-26T19:00:16.087Z,1.42
2022-07-26T19:01:47.905Z,1.59
2022-07-26T19:03:20.811Z,1.68
2022-07-26T19:04:52.756Z,1.49
2022-07-26T19:06:27.603Z,1.48
2022-07-26T19:07:59.890Z,1.42
2022-07-26T19:09:31.520Z,1.47
2022-07-26T19:11:04.361Z,1.37
2022-07-26T19:12:36.891Z,1.37
2022-07-26T19:14:08.840Z,1.43
2022-07-26T19:15:45.327Z,1.45
2022-07-26T19:17:17.038Z,1.49
2022-07-26T19:18:51.695Z,1.49
2022-07-26T19:20:26.814Z,2.65
2022-07-26T19:22:03.719Z,2.38
2022-07-26T19:23:35.779Z,1.69
2022-07-26T19:25:10.963Z,1.35
2022-07-26T19:26:43.143Z,1.52
2022-07-26T19:28:16.201Z,1.60
2022-07-26T19:29:47.842Z,1.47
2022-07-26T19:31:20.130Z,1.68
2022-07-26T19:32:51.818Z,1.84
2022-07-26T19:34:29.619Z,1.63
2022-07-26T19:36:02.384Z,1.74
2022-07-26T19:37:34.012Z,1.56
2022-07-26T19:39:15.741Z,1.33
2022-07-26T19:40:48.814Z,1.52
2022-07-26T19:42:20.993Z,1.35
2022-07-26T19:43:53.740Z,1.53
2022-07-26T19:45:25.909Z,1.56
2022-07-26T19:47:02.919Z,1.44
2022-07-26T19:48:35.630Z,1.61
2022-07-26T19:50:13.384Z,1.37
2022-07-26T19:51:45.215Z,1.44
2022-07-26T19:53:16.794Z,1.65
2022-07-26T19:54:48.442Z,1.66
2022-07-26T19:56:24.564Z,1.75
2022-07-26T19:57:56.622Z,1.60
2022-07-26T19:59:28.438Z,1.82
2022-07-26T20:00:59.968Z,1.85
2022-07-26T20:02:31.653Z,1.50
2022-07-26T20:04:09.563Z,1.57
2022-07-26T20:05:41.239Z,1.56
2022-07-26T20:07:13.757Z,1.54
2022-07-26T20:08:45.494Z,1.72
2022-07-26T20:10:31.992Z,1.75
2022-07-26T20:12:05.113Z,1.57
2022-07-26T20:13:36.816Z,1.42
2022-07-26T20:15:08.314Z,1.59
2022-07-26T20:16:40.024Z,1.48
2022-07-26T20:18:11.480Z,1.73
2022-07-26T20:19:43.010Z,1.54
2022-07-26T20:21:15.933Z,1.32
2022-07-26T20:22:47.590Z,1.46
2022-07-26T20:24:19.202Z,1.58
2022-07-26T20:25:50.838Z,1.44
2022-07-26T20:27:23.879Z,1.53
2022-07-26T20:29:00.393Z,1.64
2022-07-26T20:30:32.800Z,1.68
2022-07-26T20:32:04.450Z,1.44
2022-07-26T20:33:36.257Z,1.38
2022-07-26T20:35:07.994Z,1.58
2022-07-26T20:36:44.441Z,1.70
2022-07-26T20:38:21.205Z,1.51
2022-07-26T20:39:53.020Z,1.63
2022-07-26T20:41:24.731Z,1.66
2022-07-26T20:42:57.112Z,1.59